createdAt,value
2023-02-21T00:00:31.884Z,42.90
2023-02-21T00:03:17.096Z,42.92
2023-02-21T00:06:02.321Z,42.69
2023-02-21T00:08:47.763Z,42.78
2023-02-21T00:11:32.789Z,42.90
2023-02-21T00:14:18.206Z,42.75
2023-02-21T00:17:03.091Z,42.83
2023-02-21T00:19:47.816Z,42.84
2023-02-21T00:22:33.222Z,42.87
2023-02-21T00:25:18.004Z,42.79
2023-02-21T00:28:02.914Z,42.67
2023-02-21T00:30:47.730Z,42.79
2023-02-21T00:33:32.962Z,42.83
2023-02-21T00:36:18.158Z,42.65
2023-02-21T00:39:02.994Z,42.74
2023-02-21T00:41:47.739Z,42.88
2023-02-21T00:44:32.515Z,42.76
2023-02-21T00:47:17.533Z,42.75
2023-02-21T00:50:03.023Z,42.73
2023-02-21T00:52:48.047Z,42.79
2023-02-21T00:55:32.970Z,42.81
2023-02-21T00:58:17.920Z,42.92
2023-02-21T01:01:02.792Z,42.69
2023-02-21T01:03:47.543Z,42.75
2023-02-21T01:06:32.515Z,42.87
2023-02-21T01:09:17.477Z,42.82
2023-02-21T01:12:02.399Z,42.84
2023-02-21T01:14:47.175Z,42.83
2023-02-21T01:17:32.560Z,42.58
2023-02-21T01:20:19.574Z,42.79
2023-02-21T01:23:05.854Z,42.82
2023-02-21T01:25:50.644Z,42.84
2023-02-21T01:28:35.533Z,42.79
2023-02-21T01:31:20.512Z,42.78
2023-02-21T01:34:05.802Z,42.76
2023-02-21T01:36:50.972Z,42.72
2023-02-21T01:39:36.243Z,42.73
2023-02-21T01:42:21.706Z,42.81
2023-02-21T01:45:07.799Z,42.87
2023-02-21T01:47:53.385Z,42.83
2023-02-21T01:50:43.700Z,42.96
2023-02-21T01:53:49.192Z,42.93
2023-02-21T01:56:34.286Z,42.88
2023-02-21T01:59:21.108Z,42.72
2023-02-21T02:02:13.602Z,42.87
2023-02-21T02:05:00.423Z,42.82
2023-02-21T02:07:45.369Z,42.78
2023-02-21T02:10:32.186Z,42.83
2023-02-21T02:13:29.826Z,42.89
2023-02-21T02:16:02.201Z,42.89
2023-02-21T02:18:31.685Z,42.90
2023-02-21T02:21:18.645Z,42.58
2023-02-21T02:24:03.404Z,42.82
2023-02-21T02:26:39.437Z,42.68
2023-02-21T02:29:14.963Z,42.77
2023-02-21T02:32:09.430Z,42.74
2023-02-21T02:34:54.268Z,42.63
2023-02-21T02:37:35.920Z,42.75
2023-02-21T02:40:27.713Z,42.68
2023-02-21T02:43:10.630Z,42.81
2023-02-21T02:45:46.462Z,42.86
2023-02-21T02:48:29.160Z,42.79
2023-02-21T02:50:56.195Z,42.73
2023-02-21T02:53:27.790Z,42.70
2023-02-21T02:55:58.942Z,42.70
2023-02-21T02:58:30.893Z,42.88
2023-02-21T03:01:28.085Z,42.62
2023-02-21T03:04:01.688Z,42.65
2023-02-21T03:06:48.101Z,42.62
2023-02-21T03:09:23.331Z,42.77
2023-02-21T03:12:16.512Z,42.78
2023-02-21T03:15:07.015Z,42.92
2023-02-21T03:17:40.364Z,42.92
2023-02-21T03:20:09.357Z,43.04
2023-02-21T03:22:35.901Z,42.83
2023-02-21T03:25:04.596Z,42.74
2023-02-21T03:27:32.313Z,42.80
2023-02-21T03:30:02.790Z,42.89
2023-02-21T03:32:37.598Z,42.90
2023-02-21T03:35:05.155Z,43.07
2023-02-21T03:37:49.628Z,42.87
2023-02-21T03:40:23.858Z,42.80
2023-02-21T03:42:52.278Z,42.85
2023-02-21T03:45:19.397Z,42.95
2023-02-21T03:47:46.146Z,42.96
2023-02-21T03:50:13.250Z,42.87
2023-02-21T03:52:39.817Z,42.80
2023-02-21T03:55:08.528Z,42.85
2023-02-21T03:57:35.464Z,42.67
2023-02-21T04:00:02.502Z,42.81
2023-02-21T04:02:29.064Z,42.93
2023-02-21T04:04:55.587Z,42.85
2023-02-21T04:07:22.247Z,42.81
2023-02-21T04:09:49.532Z,42.84
2023-02-21T04:12:16.260Z,42.83
2023-02-21T04:14:42.818Z,42.69
2023-02-21T04:17:09.311Z,42.72
2023-02-21T04:19:35.967Z,42.93
2023-02-21T04:22:02.673Z,42.82
2023-02-21T04:24:29.220Z,42.83
2023-02-21T04:26:56.044Z,42.77
2023-02-21T04:29:22.588Z,42.86
2023-02-21T04:31:50.646Z,42.88
2023-02-21T04:34:17.818Z,42.76
2023-02-21T04:36:44.514Z,42.85
2023-02-21T04:39:11.258Z,42.80
2023-02-21T04:41:37.955Z,42.86
2023-02-21T04:44:06.200Z,42.83
2023-02-21T04:46:33.252Z,42.86
2023-02-21T04:49:00.162Z,42.83
2023-02-21T04:51:27.094Z,42.80
2023-02-21T04:53:54.475Z,42.82
2023-02-21T04:56:23.529Z,42.75
2023-02-21T04:58:50.823Z,42.88
2023-02-21T05:01:19.509Z,42.78
2023-02-21T05:03:46.370Z,42.81
2023-02-21T05:06:25.017Z,42.85
2023-02-21T05:08:51.752Z,42.83
2023-02-21T05:11:20.275Z,43.24
2023-02-21T05:13:47.498Z,43.25
2023-02-21T05:16:14.348Z,43.08
2023-02-21T05:18:45.399Z,43.10
2023-02-21T05:21:13.314Z,42.98
2023-02-21T05:23:41.425Z,43.11
2023-02-21T05:26:13.444Z,42.87
2023-02-21T05:28:41.086Z,43.07
2023-02-21T05:31:08.848Z,43.13
2023-02-21T05:33:35.799Z,43.12
2023-02-21T05:36:02.972Z,43.16
2023-02-21T05:38:29.489Z,43.23
2023-02-21T05:40:56.114Z,43.33
2023-02-21T05:43:22.813Z,43.18
2023-02-21T05:45:49.402Z,43.33
2023-02-21T05:48:16.005Z,43.17
2023-02-21T05:50:42.876Z,43.13
2023-02-21T05:53:10.451Z,43.09
2023-02-21T05:55:37.597Z,42.97
2023-02-21T05:58:04.376Z,43.37
2023-02-21T06:00:31.193Z,43.15
2023-02-21T06:02:57.970Z,43.11
2023-02-21T06:05:24.922Z,43.15
2023-02-21T06:07:51.748Z,43.36
2023-02-21T06:10:19.845Z,43.24
2023-02-21T06:12:46.530Z,43.21
2023-02-21T06:15:13.317Z,43.15
2023-02-21T06:17:41.462Z,43.20
2023-02-21T06:20:11.129Z,43.15
2023-02-21T06:22:37.667Z,43.28
2023-02-21T06:25:04.467Z,43.17
2023-02-21T06:27:30.961Z,43.09
2023-02-21T06:29:57.500Z,43.25
2023-02-21T06:32:24.075Z,43.32
2023-02-21T06:34:50.611Z,43.20
2023-02-21T06:37:19.097Z,43.32
2023-02-21T06:39:46.211Z,43.15
2023-02-21T06:42:15.062Z,43.23
2023-02-21T06:44:46.520Z,43.26
2023-02-21T06:47:14.031Z,43.14
2023-02-21T06:49:40.708Z,43.29
2023-02-21T06:52:07.830Z,43.10
2023-02-21T06:54:34.782Z,43.29
2023-02-21T06:57:01.830Z,43.40
2023-02-21T06:59:29.488Z,43.10
2023-02-21T07:01:57.124Z,43.09
2023-02-21T07:04:24.894Z,42.96
2023-02-21T07:06:52.306Z,43.18
2023-02-21T07:09:18.786Z,43.15
2023-02-21T07:11:47.001Z,43.20
2023-02-21T07:14:14.492Z,43.35
2023-02-21T07:16:41.467Z,43.11
2023-02-21T07:19:08.093Z,43.18
2023-02-21T07:21:34.653Z,43.13
2023-02-21T07:24:01.278Z,43.17
2023-02-21T07:26:27.809Z,43.47
2023-02-21T07:28:54.558Z,43.75
2023-02-21T07:31:21.479Z,44.05
2023-02-21T07:33:48.272Z,43.91
2023-02-21T07:36:14.755Z,43.88
2023-02-21T07:38:41.287Z,43.73
2023-02-21T07:41:08.026Z,43.73
2023-02-21T07:43:34.543Z,43.67
2023-02-21T07:46:01.556Z,43.54
2023-02-21T07:48:28.568Z,43.58
2023-02-21T07:50:55.095Z,43.56
2023-02-21T07:53:21.643Z,43.51
2023-02-21T07:55:48.167Z,43.32
2023-02-21T07:58:14.717Z,43.47
2023-02-21T08:00:41.380Z,43.36
2023-02-21T08:03:09.900Z,43.30
2023-02-21T08:05:36.471Z,43.53
2023-02-21T08:08:03.149Z,43.43
2023-02-21T08:10:29.855Z,43.38
2023-02-21T08:12:56.444Z,43.22
2023-02-21T08:15:23.179Z,43.40
2023-02-21T08:17:50.342Z,43.33
2023-02-21T08:20:17.270Z,43.29
2023-02-21T08:22:44.014Z,43.29
2023-02-21T08:25:11.749Z,43.34
2023-02-21T08:27:42.206Z,43.18
2023-02-21T08:30:11.041Z,43.26
2023-02-21T08:32:37.880Z,43.13
2023-02-21T08:35:06.302Z,43.59
2023-02-21T08:37:36.193Z,43.36
2023-02-21T08:40:04.325Z,43.17
2023-02-21T08:42:31.178Z,43.32
2023-02-21T08:44:57.818Z,43.28
2023-02-21T08:47:24.614Z,43.34
2023-02-21T08:49:51.385Z,43.15
2023-02-21T08:52:21.234Z,43.31
2023-02-21T08:54:47.948Z,43.36
2023-02-21T08:57:14.683Z,43.29
2023-02-21T08:59:45.226Z,43.10
2023-02-21T09:02:16.130Z,43.33
2023-02-21T09:04:43.443Z,43.05
2023-02-21T09:07:12.795Z,43.25
2023-02-21T09:09:39.586Z,43.17
2023-02-21T09:12:10.034Z,43.22
2023-02-21T09:14:38.011Z,43.22
2023-02-21T09:17:06.828Z,43.22
2023-02-21T09:19:33.850Z,43.26
2023-02-21T09:22:01.830Z,43.36
2023-02-21T09:24:28.930Z,43.29
2023-02-21T09:27:03.101Z,43.23
2023-02-21T09:29:45.460Z,43.19
2023-02-21T09:32:13.975Z,44.17
2023-02-21T09:34:40.587Z,44.54
2023-02-21T09:37:07.596Z,44.67
2023-02-21T09:39:36.798Z,44.87
2023-02-21T09:42:03.434Z,44.44
2023-02-21T09:44:30.514Z,44.46
2023-02-21T09:47:07.896Z,44.48
2023-02-21T09:49:40.753Z,44.54
2023-02-21T09:52:25.263Z,44.50
2023-02-21T09:54:58.722Z,44.38
2023-02-21T09:57:25.628Z,44.43
2023-02-21T09:59:52.239Z,44.45
2023-02-21T10:02:43.322Z,44.52
2023-02-21T10:05:15.734Z,44.50
2023-02-21T10:07:58.639Z,44.34
2023-02-21T10:10:42.876Z,44.35
2023-02-21T10:13:34.392Z,44.26
2023-02-21T10:16:09.999Z,44.42
2023-02-21T10:18:51.961Z,44.47
2023-02-21T10:21:35.869Z,44.33
2023-02-21T10:24:10.700Z,44.25
2023-02-21T10:26:42.366Z,44.29
2023-02-21T10:29:21.388Z,44.63
2023-02-21T10:31:52.348Z,47.26
2023-02-21T10:34:27.970Z,49.40
2023-02-21T10:37:05.141Z,48.65
2023-02-21T10:39:49.585Z,49.15
2023-02-21T10:42:39.833Z,48.90
2023-02-21T10:45:07.981Z,48.67
2023-02-21T10:47:50.221Z,48.23
2023-02-21T10:50:35.717Z,48.55
2023-02-21T10:53:02.213Z,47.82
2023-02-21T10:55:33.167Z,47.69
2023-02-21T10:58:11.600Z,47.45
2023-02-21T11:00:42.155Z,47.73
2023-02-21T11:03:20.734Z,47.79
2023-02-21T11:05:59.690Z,48.25
2023-02-21T11:08:40.118Z,49.60
2023-02-21T11:11:07.334Z,53.75
2023-02-21T11:13:36.232Z,53.48
2023-02-21T11:16:24.658Z,54.02
2023-02-21T11:19:07.912Z,53.42
2023-02-21T11:21:34.658Z,53.08
2023-02-21T11:24:04.458Z,53.35
2023-02-21T11:26:36.627Z,52.00
2023-02-21T11:29:12.360Z,51.94
2023-02-21T11:31:39.557Z,52.00
2023-02-21T11:34:09.179Z,51.71
2023-02-21T11:36:39.596Z,50.97
2023-02-21T11:39:28.061Z,51.08
2023-02-21T11:42:00.302Z,50.55
2023-02-21T11:44:36.365Z,50.09
2023-02-21T11:47:17.786Z,50.22
2023-02-21T11:49:49.889Z,49.58
2023-02-21T11:52:49.814Z,49.14
2023-02-21T11:55:19.695Z,49.29
2023-02-21T11:58:06.347Z,48.79
2023-02-21T12:01:01.713Z,48.52
2023-02-21T12:03:46.398Z,48.29
2023-02-21T12:06:35.168Z,48.23
2023-02-21T12:09:10.262Z,47.84
2023-02-21T12:11:55.847Z,47.94
2023-02-21T12:14:37.956Z,47.68
2023-02-21T12:17:16.176Z,47.60
2023-02-21T12:20:06.576Z,47.28
2023-02-21T12:22:45.303Z,47.28
2023-02-21T12:25:17.815Z,47.23
2023-02-21T12:28:03.145Z,46.98
2023-02-21T12:31:08.939Z,46.99
2023-02-21T12:33:38.265Z,46.67
2023-02-21T12:36:23.163Z,46.71
2023-02-21T12:39:12.905Z,46.88
2023-02-21T12:41:53.350Z,46.76
2023-02-21T12:44:24.926Z,46.52
2023-02-21T12:47:00.754Z,46.42
2023-02-21T12:49:42.070Z,46.61
2023-02-21T12:52:40.978Z,46.58
2023-02-21T12:55:07.702Z,46.46
2023-02-21T12:57:54.951Z,46.04
2023-02-21T13:00:25.427Z,46.30
2023-02-21T13:03:19.465Z,46.22
2023-02-21T13:05:54.966Z,46.08
2023-02-21T13:08:24.374Z,45.97
2023-02-21T13:11:38.294Z,45.96
2023-02-21T13:14:11.656Z,45.71
2023-02-21T13:16:38.497Z,46.01
2023-02-21T13:19:10.223Z,45.81
2023-02-21T13:21:42.909Z,45.77
2023-02-21T13:24:45.641Z,45.99
2023-02-21T13:27:22.007Z,45.50
2023-02-21T13:29:49.988Z,45.72
2023-02-21T13:32:22.217Z,45.62
2023-02-21T13:35:02.234Z,45.69
2023-02-21T13:37:32.790Z,45.54
2023-02-21T13:40:07.520Z,45.42
2023-02-21T13:42:38.488Z,45.46
2023-02-21T13:45:38.140Z,45.29
2023-02-21T13:48:07.373Z,45.37
2023-02-21T13:50:35.169Z,45.34
2023-02-21T13:53:03.489Z,45.28
2023-02-21T13:55:31.556Z,45.33
2023-02-21T13:57:58.209Z,45.21
2023-02-21T14:00:24.694Z,45.08
2023-02-21T14:03:18.180Z,44.89
2023-02-21T14:05:44.960Z,45.05
2023-02-21T14:08:26.195Z,44.84
2023-02-21T14:10:55.629Z,44.92
2023-02-21T14:14:03.469Z,44.73
2023-02-21T14:16:47.030Z,45.10
2023-02-21T14:19:24.618Z,44.81
2023-02-21T14:21:56.075Z,44.77
2023-02-21T14:24:26.658Z,44.81
2023-02-21T14:26:53.064Z,44.81
2023-02-21T14:29:40.335Z,44.78
2023-02-21T14:32:09.982Z,44.79
2023-02-21T14:34:41.733Z,44.71
2023-02-21T14:37:28.231Z,44.86
2023-02-21T14:40:10.608Z,44.80
2023-02-21T14:42:54.725Z,44.82
2023-02-21T14:45:28.014Z,44.75
2023-02-21T14:48:06.657Z,44.72
2023-02-21T14:51:02.393Z,44.72
2023-02-21T14:53:53.384Z,44.65
2023-02-21T14:56:34.919Z,44.61
2023-02-21T14:59:19.346Z,44.69
2023-02-21T15:02:04.658Z,44.33
2023-02-21T15:04:34.147Z,44.46
2023-02-21T15:07:05.963Z,44.22
2023-02-21T15:09:32.518Z,44.53
2023-02-21T15:11:59.688Z,44.32
2023-02-21T15:14:29.702Z,44.41
2023-02-21T15:16:59.645Z,44.54
2023-02-21T15:19:32.593Z,44.39
2023-02-21T15:22:17.671Z,44.48
2023-02-21T15:25:09.923Z,44.26
2023-02-21T15:27:50.699Z,44.24
2023-02-21T15:30:17.451Z,43.97
2023-02-21T15:32:45.924Z,44.25
2023-02-21T15:35:22.314Z,44.42
2023-02-21T15:37:49.126Z,44.27
2023-02-21T15:40:20.938Z,44.20
2023-02-21T15:42:49.847Z,44.42
2023-02-21T15:45:29.088Z,44.33
2023-02-21T15:47:57.232Z,44.31
2023-02-21T15:50:37.220Z,44.32
2023-02-21T15:53:16.778Z,44.32
2023-02-21T15:55:44.775Z,44.22
2023-02-21T15:58:17.177Z,44.34
2023-02-21T16:00:48.874Z,44.26
2023-02-21T16:03:44.351Z,44.49
2023-02-21T16:06:25.277Z,44.38
2023-02-21T16:09:15.592Z,44.51
2023-02-21T16:11:44.271Z,44.33
2023-02-21T16:14:29.976Z,44.49
2023-02-21T16:17:28.565Z,44.61
2023-02-21T16:19:58.804Z,44.62
2023-02-21T16:22:59.669Z,44.87
2023-02-21T16:25:26.001Z,44.64
2023-02-21T16:27:56.052Z,44.64
2023-02-21T16:30:28.482Z,44.80
2023-02-21T16:33:02.337Z,44.86
2023-02-21T16:35:29.450Z,44.83
2023-02-21T16:37:58.995Z,44.74
2023-02-21T16:40:29.686Z,44.97
2023-02-21T16:42:57.712Z,44.81
2023-02-21T16:45:24.827Z,44.94
2023-02-21T16:48:04.212Z,44.89
2023-02-21T16:50:36.434Z,44.96
2023-02-21T16:53:03.648Z,45.11
2023-02-21T16:55:30.416Z,44.96
2023-02-21T16:58:04.813Z,45.08
2023-02-21T17:00:33.466Z,45.06
2023-02-21T17:03:01.071Z,44.90
2023-02-21T17:05:27.680Z,44.99
2023-02-21T17:07:55.283Z,44.98
2023-02-21T17:10:22.649Z,45.12
2023-02-21T17:12:49.262Z,44.90
2023-02-21T17:15:16.079Z,44.89
2023-02-21T17:17:44.489Z,45.02
2023-02-21T17:20:19.550Z,44.92
2023-02-21T17:22:46.156Z,44.99
2023-02-21T17:25:12.659Z,45.09
2023-02-21T17:27:39.410Z,45.09
2023-02-21T17:30:07.061Z,44.95
2023-02-21T17:32:33.738Z,45.07
2023-02-21T17:35:00.713Z,45.03
2023-02-21T17:37:27.305Z,44.92
2023-02-21T17:39:56.217Z,44.93
2023-02-21T17:42:24.011Z,45.20
2023-02-21T17:44:54.141Z,44.98
2023-02-21T17:47:22.815Z,44.99
2023-02-21T17:49:50.564Z,44.98
2023-02-21T17:52:18.458Z,45.11
2023-02-21T17:54:45.088Z,45.27
2023-02-21T17:57:12.206Z,45.23
2023-02-21T17:59:39.672Z,45.29
2023-02-21T18:02:08.154Z,45.24
2023-02-21T18:04:34.839Z,45.31
2023-02-21T18:07:01.756Z,45.24
2023-02-21T18:09:28.658Z,45.39
2023-02-21T18:11:56.659Z,45.28
2023-02-21T18:14:26.076Z,45.68
2023-02-21T18:16:56.300Z,45.48
2023-02-21T18:19:24.379Z,45.44
2023-02-21T18:21:50.933Z,45.50
2023-02-21T18:24:18.831Z,45.42
2023-02-21T18:26:46.634Z,45.39
2023-02-21T18:29:13.498Z,45.46
2023-02-21T18:31:40.023Z,45.38
2023-02-21T18:34:07.685Z,45.29
2023-02-21T18:36:35.522Z,45.32
2023-02-21T18:39:02.448Z,45.22
2023-02-21T18:41:29.255Z,45.50
2023-02-21T18:43:55.774Z,45.53
2023-02-21T18:46:23.757Z,45.47
2023-02-21T18:48:50.984Z,45.30
2023-02-21T18:51:20.092Z,45.10
2023-02-21T18:53:50.939Z,45.32
2023-02-21T18:56:19.575Z,45.17
2023-02-21T18:58:47.445Z,45.07
2023-02-21T19:01:19.286Z,45.35
2023-02-21T19:03:46.390Z,45.18
2023-02-21T19:06:15.902Z,45.23
2023-02-21T19:08:42.528Z,45.07
2023-02-21T19:11:09.179Z,45.03
2023-02-21T19:13:35.621Z,45.18
2023-02-21T19:16:02.199Z,45.26
2023-02-21T19:18:30.524Z,45.01
2023-02-21T19:20:57.671Z,44.76
2023-02-21T19:23:24.964Z,45.08
2023-02-21T19:25:51.499Z,44.96
2023-02-21T19:28:18.020Z,44.99
2023-02-21T19:30:44.650Z,44.88
2023-02-21T19:33:11.990Z,44.74
2023-02-21T19:35:39.835Z,44.85
2023-02-21T19:38:08.298Z,44.66
2023-02-21T19:40:36.210Z,44.77
2023-02-21T19:43:03.665Z,44.85
2023-02-21T19:45:30.655Z,44.87
2023-02-21T19:47:57.453Z,44.74
2023-02-21T19:50:24.064Z,44.74
2023-02-21T19:52:58.532Z,44.69
2023-02-21T19:55:26.920Z,44.69
2023-02-21T19:57:53.463Z,44.57
2023-02-21T20:00:20.548Z,44.74
2023-02-21T20:02:47.822Z,44.59
2023-02-21T20:05:16.301Z,44.37
2023-02-21T20:07:43.226Z,44.34
2023-02-21T20:10:11.232Z,44.50
2023-02-21T20:12:37.750Z,44.37
2023-02-21T20:15:05.711Z,44.41
2023-02-21T20:17:35.204Z,44.49
2023-02-21T20:20:01.883Z,44.51
2023-02-21T20:22:33.873Z,44.34
2023-02-21T20:25:01.599Z,44.40
2023-02-21T20:27:28.711Z,44.35
2023-02-21T20:29:55.562Z,44.32
2023-02-21T20:32:23.037Z,44.35
2023-02-21T20:34:54.474Z,44.22
2023-02-21T20:37:21.587Z,44.33
2023-02-21T20:39:50.060Z,44.12
2023-02-21T20:42:17.418Z,44.36
2023-02-21T20:44:44.434Z,44.25
2023-02-21T20:47:11.411Z,44.31
2023-02-21T20:49:38.884Z,44.18
2023-02-21T20:52:06.031Z,44.12
2023-02-21T20:54:32.615Z,44.22
2023-02-21T20:56:59.110Z,44.41
2023-02-21T20:59:29.091Z,44.26
2023-02-21T21:01:56.344Z,44.35
2023-02-21T21:04:36.297Z,44.22
2023-02-21T21:07:09.357Z,44.38
2023-02-21T21:09:37.664Z,44.24
2023-02-21T21:12:07.978Z,44.33
2023-02-21T21:14:39.723Z,44.34
2023-02-21T21:17:06.476Z,44.44
2023-02-21T21:19:34.501Z,44.27
2023-02-21T21:22:06.050Z,44.43
2023-02-21T21:24:32.849Z,44.49
2023-02-21T21:27:06.268Z,44.59
2023-02-21T21:29:36.505Z,44.44
2023-02-21T21:32:05.744Z,44.16
2023-02-21T21:34:33.145Z,44.34
2023-02-21T21:37:02.478Z,44.40
2023-02-21T21:39:31.463Z,44.22
2023-02-21T21:42:05.701Z,44.50
2023-02-21T21:44:32.776Z,44.29
2023-02-21T21:47:01.190Z,44.22
2023-02-21T21:49:34.915Z,44.22
2023-02-21T21:52:04.393Z,44.29
2023-02-21T21:54:36.094Z,44.32
2023-02-21T21:57:05.376Z,44.32
2023-02-21T21:59:32.713Z,44.31
2023-02-21T22:01:59.770Z,44.26
2023-02-21T22:04:29.076Z,44.32
2023-02-21T22:06:56.713Z,44.24
2023-02-21T22:09:25.547Z,44.15
2023-02-21T22:11:52.865Z,44.37
2023-02-21T22:14:22.618Z,44.19
2023-02-21T22:16:51.371Z,44.20
2023-02-21T22:19:19.633Z,44.15
2023-02-21T22:21:47.533Z,44.13
2023-02-21T22:24:15.560Z,44.15
2023-02-21T22:26:45.056Z,44.01
2023-02-21T22:29:15.623Z,43.96
2023-02-21T22:31:44.098Z,43.95
2023-02-21T22:34:11.019Z,43.98
2023-02-21T22:36:37.564Z,44.02
2023-02-21T22:39:11.279Z,43.79
2023-02-21T22:41:38.005Z,43.75
2023-02-21T22:44:04.564Z,43.92
2023-02-21T22:46:42.643Z,43.99
2023-02-21T22:49:10.062Z,43.87
2023-02-21T22:51:37.123Z,43.75
2023-02-21T22:54:04.884Z,43.76
2023-02-21T22:56:38.418Z,43.85
2023-02-21T22:59:07.650Z,43.75
2023-02-21T23:01:34.796Z,43.42
2023-02-21T23:04:16.237Z,43.74
2023-02-21T23:06:43.720Z,43.62
2023-02-21T23:09:14.400Z,43.52
2023-02-21T23:11:53.007Z,43.58
2023-02-21T23:14:22.008Z,43.48
2023-02-21T23:16:48.815Z,43.43
2023-02-21T23:19:15.798Z,43.50
2023-02-21T23:21:48.327Z,43.50
2023-02-21T23:24:16.219Z,43.47
2023-02-21T23:26:46.591Z,43.42
2023-02-21T23:29:16.847Z,43.42
2023-02-21T23:31:43.625Z,43.33
2023-02-21T23:34:11.954Z,43.51
2023-02-21T23:36:41.822Z,43.33
2023-02-21T23:39:09.789Z,43.28
2023-02-21T23:41:41.285Z,43.22
2023-02-21T23:44:12.930Z,43.26
2023-02-21T23:46:42.474Z,43.17
2023-02-21T23:49:15.661Z,43.09
2023-02-21T23:51:44.292Z,43.16
2023-02-21T23:54:13.538Z,43.38
2023-02-21T23:56:40.340Z,43.11
2023-02-21T23:59:07.758Z,43.00
